sensor_id;sensor_type;location;lat;lon;timestamp;pressure;altitude;pressure_sealevel;temperature;humidity
9905;BME280;4991;43.566;27.820;2023-10-09T00:01:45;99468.84;;;10.04;100.00
9905;BME280;4991;43.566;27.820;2023-10-09T00:04:12;99457.50;;;9.92;100.00
9905;BME280;4991;43.566;27.820;2023-10-09T00:09:58;99473.41;;;10.14;100.00
9905;BME280;4991;43.566;27.820;2023-10-09T00:12:29;99477.00;;;10.09;100.00
9905;BME280;4991;43.566;27.820;2023-10-09T00:14:54;99433.16;;;9.72;100.00
9905;BME280;4991;43.566;27.820;2023-10-09T00:17:35;99438.81;;;9.81;100.00
9905;BME280;4991;43.566;27.820;2023-10-09T00:20:03;99482.44;;;10.09;100.00
9905;BME280;4991;43.566;27.820;2023-10-09T00:25:57;99449.03;;;9.94;100.00
9905;BME280;4991;43.566;27.820;2023-10-09T00:28:41;99420.34;;;9.78;100.00
9905;BME280;4991;43.566;27.820;2023-10-09T00:31:12;99433.09;;;9.77;100.00
9905;BME280;4991;43.566;27.820;2023-10-09T00:33:42;99424.09;;;9.82;100.00
9905;BME280;4991;43.566;27.820;2023-10-09T00:36:09;99399.41;;;9.73;100.00
9905;BME280;4991;43.566;27.820;2023-10-09T00:38:36;99424.94;;;9.77;100.00
9905;BME280;4991;43.566;27.820;2023-10-09T00:41:04;99399.84;;;9.52;100.00
9905;BME280;4991;43.566;27.820;2023-10-09T00:43:32;99440.34;;;9.92;100.00
9905;BME280;4991;43.566;27.820;2023-10-09T00:46:02;99470.88;;;10.22;100.00
9905;BME280;4991;43.566;27.820;2023-10-09T00:48:28;99464.75;;;10.02;100.00
9905;BME280;4991;43.566;27.820;2023-10-09T00:51:04;99371.63;;;9.43;100.00
9905;BME280;4991;43.566;27.820;2023-10-09T00:53:48;99467.28;;;9.88;100.00
9905;BME280;4991;43.566;27.820;2023-10-09T00:56:22;99516.16;;;10.08;100.00
9905;BME280;4991;43.566;27.820;2023-10-09T00:58:50;99403.97;;;9.44;100.00
9905;BME280;4991;43.566;27.820;2023-10-09T01:01:35;99473.25;;;9.95;100.00
9905;BME280;4991;43.566;27.820;2023-10-09T01:04:03;99512.63;;;10.13;100.00
9905;BME280;4991;43.566;27.820;2023-10-09T01:06:55;99521.75;;;10.27;100.00
9905;BME280;4991;43.566;27.820;2023-10-09T01:09:58;99483.00;;;10.01;100.00
9905;BME280;4991;43.566;27.820;2023-10-09T01:12:35;99491.97;;;10.02;100.00
9905;BME280;4991;43.566;27.820;2023-10-09T01:15:07;99484.38;;;9.99;100.00
9905;BME280;4991;43.566;27.820;2023-10-09T01:17:34;99495.88;;;9.91;100.00
9905;BME280;4991;43.566;27.820;2023-10-09T01:20:11;99481.16;;;9.92;100.00
9905;BME280;4991;43.566;27.820;2023-10-09T01:22:49;99496.97;;;9.90;100.00
9905;BME280;4991;43.566;27.820;2023-10-09T01:25:16;99490.19;;;9.82;100.00
9905;BME280;4991;43.566;27.820;2023-10-09T01:27:41;99472.63;;;9.70;100.00
9905;BME280;4991;43.566;27.820;2023-10-09T01:30:09;99488.91;;;9.75;100.00
9905;BME280;4991;43.566;27.820;2023-10-09T01:32:40;99463.72;;;9.54;100.00
9905;BME280;4991;43.566;27.820;2023-10-09T01:35:06;99514.19;;;9.70;100.00
9905;BME280;4991;43.566;27.820;2023-10-09T01:37:45;99549.72;;;9.89;100.00
9905;BME280;4991;43.566;27.820;2023-10-09T01:40:15;99551.78;;;9.68;100.00
9905;BME280;4991;43.566;27.820;2023-10-09T01:43:02;99508.91;;;9.40;100.00
9905;BME280;4991;43.566;27.820;2023-10-09T01:45:29;99506.00;;;9.27;100.00
9905;BME280;4991;43.566;27.820;2023-10-09T01:47:55;99534.41;;;9.54;100.00
9905;BME280;4991;43.566;27.820;2023-10-09T01:50:22;99547.16;;;9.64;100.00
9905;BME280;4991;43.566;27.820;2023-10-09T01:52:56;99537.19;;;9.39;100.00
9905;BME280;4991;43.566;27.820;2023-10-09T01:55:25;99536.41;;;9.29;100.00
9905;BME280;4991;43.566;27.820;2023-10-09T01:58:01;99532.63;;;9.30;100.00
9905;BME280;4991;43.566;27.820;2023-10-09T02:00:48;99566.25;;;9.44;100.00
9905;BME280;4991;43.566;27.820;2023-10-09T02:03:27;99585.25;;;9.54;100.00
9905;BME280;4991;43.566;27.820;2023-10-09T02:05:55;99534.03;;;9.02;100.00
9905;BME280;4991;43.566;27.820;2023-10-09T02:08:28;99570.44;;;9.16;100.00
9905;BME280;4991;43.566;27.820;2023-10-09T02:11:01;99600.59;;;9.25;100.00
9905;BME280;4991;43.566;27.820;2023-10-09T02:13:27;99576.47;;;8.93;100.00
9905;BME280;4991;43.566;27.820;2023-10-09T02:16:00;99614.47;;;9.18;100.00
9905;BME280;4991;43.566;27.820;2023-10-09T02:18:44;99616.91;;;9.09;100.00
9905;BME280;4991;43.566;27.820;2023-10-09T02:21:19;99588.66;;;8.90;100.00
9905;BME280;4991;43.566;27.820;2023-10-09T02:24:05;99606.06;;;8.94;100.00
9905;BME280;4991;43.566;27.820;2023-10-09T02:26:51;99615.53;;;9.02;100.00
9905;BME280;4991;43.566;27.820;2023-10-09T02:29:17;99593.31;;;8.85;100.00
9905;BME280;4991;43.566;27.820;2023-10-09T02:31:43;99619.91;;;9.08;100.00
9905;BME280;4991;43.566;27.820;2023-10-09T02:34:12;99631.88;;;8.97;100.00
9905;BME280;4991;43.566;27.820;2023-10-09T02:36:38;99583.78;;;8.57;100.00
9905;BME280;4991;43.566;27.820;2023-10-09T02:39:07;99610.44;;;8.65;100.00
9905;BME280;4991;43.566;27.820;2023-10-09T02:41:54;99602.00;;;8.77;100.00
9905;BME280;4991;43.566;27.820;2023-10-09T02:44:30;99628.06;;;8.88;100.00
9905;BME280;4991;43.566;27.820;2023-10-09T02:46:59;99617.22;;;8.83;100.00
9905;BME280;4991;43.566;27.820;2023-10-09T02:49:30;99612.06;;;8.71;100.00
9905;BME280;4991;43.566;27.820;2023-10-09T02:51:57;99592.75;;;8.48;100.00
9905;BME280;4991;43.566;27.820;2023-10-09T02:54:23;99605.25;;;8.44;100.00
9905;BME280;4991;43.566;27.820;2023-10-09T02:56:51;99650.63;;;8.78;100.00
9905;BME280;4991;43.566;27.820;2023-10-09T02:59:35;99633.22;;;8.64;100.00
9905;BME280;4991;43.566;27.820;2023-10-09T03:02:04;99559.91;;;8.39;100.00
9905;BME280;4991;43.566;27.820;2023-10-09T03:04:30;99609.59;;;8.60;100.00
9905;BME280;4991;43.566;27.820;2023-10-09T03:10:43;99660.38;;;8.89;100.00
9905;BME280;4991;43.566;27.820;2023-10-09T03:13:23;99606.06;;;8.64;100.00
9905;BME280;4991;43.566;27.820;2023-10-09T03:16:18;99657.13;;;8.97;100.00
9905;BME280;4991;43.566;27.820;2023-10-09T03:18:46;99562.09;;;8.27;100.00
9905;BME280;4991;43.566;27.820;2023-10-09T03:24:28;99644.91;;;8.85;100.00
9905;BME280;4991;43.566;27.820;2023-10-09T03:26:57;99638.94;;;8.83;100.00
9905;BME280;4991;43.566;27.820;2023-10-09T03:29:24;99640.03;;;8.77;100.00
9905;BME280;4991;43.566;27.820;2023-10-09T03:31:51;99673.44;;;8.92;100.00
9905;BME280;4991;43.566;27.820;2023-10-09T03:34:17;99677.50;;;8.70;100.00
9905;BME280;4991;43.566;27.820;2023-10-09T03:36:45;99659.81;;;8.47;100.00
9905;BME280;4991;43.566;27.820;2023-10-09T03:39:11;99668.78;;;8.68;100.00
9905;BME280;4991;43.566;27.820;2023-10-09T03:42:03;99638.09;;;8.37;100.00
9905;BME280;4991;43.566;27.820;2023-10-09T03:44:43;99656.00;;;8.38;100.00
9905;BME280;4991;43.566;27.820;2023-10-09T03:47:23;99657.59;;;8.34;100.00
9905;BME280;4991;43.566;27.820;2023-10-09T03:50:08;99670.13;;;8.35;100.00
9905;BME280;4991;43.566;27.820;2023-10-09T03:52:58;99641.72;;;7.96;100.00
9905;BME280;4991;43.566;27.820;2023-10-09T03:55:23;99652.88;;;8.00;100.00
9905;BME280;4991;43.566;27.820;2023-10-09T03:57:55;99693.59;;;8.15;100.00
9905;BME280;4991;43.566;27.820;2023-10-09T04:00:29;99697.97;;;8.16;100.00
9905;BME280;4991;43.566;27.820;2023-10-09T04:03:10;99690.66;;;8.21;100.00
9905;BME280;4991;43.566;27.820;2023-10-09T04:05:37;99694.72;;;8.19;100.00
9905;BME280;4991;43.566;27.820;2023-10-09T04:08:03;99706.63;;;8.13;100.00
9905;BME280;4991;43.566;27.820;2023-10-09T04:10:37;99694.09;;;8.02;100.00
9905;BME280;4991;43.566;27.820;2023-10-09T04:13:12;99685.91;;;7.86;100.00
9905;BME280;4991;43.566;27.820;2023-10-09T04:15:43;99685.09;;;7.91;100.00
9905;BME280;4991;43.566;27.820;2023-10-09T04:18:09;99699.78;;;7.95;100.00
9905;BME280;4991;43.566;27.820;2023-10-09T04:20:42;99662.84;;;7.84;100.00
9905;BME280;4991;43.566;27.820;2023-10-09T04:23:26;99698.47;;;8.08;100.00
9905;BME280;4991;43.566;27.820;2023-10-09T04:26:15;99697.88;;;7.96;100.00
9905;BME280;4991;43.566;27.820;2023-10-09T04:28:41;99693.53;;;7.95;100.00
9905;BME280;4991;43.566;27.820;2023-10-09T04:31:28;99710.09;;;7.98;100.00
9905;BME280;4991;43.566;27.820;2023-10-09T04:33:58;99696.75;;;7.86;100.00
9905;BME280;4991;43.566;27.820;2023-10-09T04:36:55;99690.50;;;7.86;100.00
9905;BME280;4991;43.566;27.820;2023-10-09T04:39:42;99679.38;;;7.77;100.00
9905;BME280;4991;43.566;27.820;2023-10-09T04:42:15;99707.94;;;8.00;100.00
9905;BME280;4991;43.566;27.820;2023-10-09T04:44:44;99721.56;;;8.10;100.00
9905;BME280;4991;43.566;27.820;2023-10-09T04:47:45;99699.19;;;7.88;100.00
9905;BME280;4991;43.566;27.820;2023-10-09T04:50:38;99714.13;;;7.85;100.00
9905;BME280;4991;43.566;27.820;2023-10-09T04:53:32;99676.28;;;7.59;100.00
9905;BME280;4991;43.566;27.820;2023-10-09T05:02:11;99736.41;;;8.03;100.00
9905;BME280;4991;43.566;27.820;2023-10-09T05:04:48;99739.09;;;7.98;100.00
9905;BME280;4991;43.566;27.820;2023-10-09T05:07:27;99705.41;;;7.78;100.00
9905;BME280;4991;43.566;27.820;2023-10-09T05:10:16;99744.31;;;8.04;100.00
9905;BME280;4991;43.566;27.820;2023-10-09T05:12:43;99692.66;;;7.79;100.00
9905;BME280;4991;43.566;27.820;2023-10-09T05:15:23;99727.66;;;7.85;100.00
9905;BME280;4991;43.566;27.820;2023-10-09T05:17:54;99740.69;;;7.83;100.00
9905;BME280;4991;43.566;27.820;2023-10-09T05:20:23;99678.34;;;7.42;100.00
9905;BME280;4991;43.566;27.820;2023-10-09T05:22:49;99764.31;;;7.93;100.00
9905;BME280;4991;43.566;27.820;2023-10-09T05:25:25;99761.06;;;7.96;100.00
9905;BME280;4991;43.566;27.820;2023-10-09T05:28:10;99779.34;;;8.11;100.00
9905;BME280;4991;43.566;27.820;2023-10-09T05:30:58;99777.47;;;8.21;100.00
9905;BME280;4991;43.566;27.820;2023-10-09T05:33:37;99748.88;;;7.99;100.00
9905;BME280;4991;43.566;27.820;2023-10-09T05:36:06;99781.25;;;8.15;100.00
9905;BME280;4991;43.566;27.820;2023-10-09T05:38:46;99800.06;;;8.27;100.00
9905;BME280;4991;43.566;27.820;2023-10-09T05:41:25;99720.03;;;7.77;100.00
9905;BME280;4991;43.566;27.820;2023-10-09T05:44:14;99806.59;;;8.31;100.00
9905;BME280;4991;43.566;27.820;2023-10-09T05:47:15;99763.53;;;8.03;100.00
9905;BME280;4991;43.566;27.820;2023-10-09T05:49:57;99801.16;;;8.31;100.00
9905;BME280;4991;43.566;27.820;2023-10-09T05:52:57;99819.22;;;8.62;100.00
9905;BME280;4991;43.566;27.820;2023-10-09T05:55:29;99814.31;;;8.59;100.00
9905;BME280;4991;43.566;27.820;2023-10-09T05:58:14;99831.19;;;8.71;100.00
9905;BME280;4991;43.566;27.820;2023-10-09T06:00:58;99813.56;;;8.73;100.00
9905;BME280;4991;43.566;27.820;2023-10-09T06:03:42;99803.50;;;8.79;100.00
9905;BME280;4991;43.566;27.820;2023-10-09T06:09:44;99852.78;;;9.18;100.00
9905;BME280;4991;43.566;27.820;2023-10-09T06:12:20;99851.97;;;9.22;100.00
9905;BME280;4991;43.566;27.820;2023-10-09T06:15:15;99798.63;;;8.86;100.00
9905;BME280;4991;43.566;27.820;2023-10-09T06:17:55;99827.78;;;9.36;100.00
9905;BME280;4991;43.566;27.820;2023-10-09T06:20:54;99837.63;;;9.52;100.00
9905;BME280;4991;43.566;27.820;2023-10-09T06:23:44;99796.81;;;9.37;100.00
9905;BME280;4991;43.566;27.820;2023-10-09T06:26:35;99848.47;;;9.87;100.00
9905;BME280;4991;43.566;27.820;2023-10-09T06:29:00;99794.34;;;9.40;100.00
9905;BME280;4991;43.566;27.820;2023-10-09T06:31:42;99844.13;;;9.61;100.00
9905;BME280;4991;43.566;27.820;2023-10-09T06:34:26;99792.19;;;9.32;100.00
9905;BME280;4991;43.566;27.820;2023-10-09T06:36:59;99785.38;;;9.20;100.00
9905;BME280;4991;43.566;27.820;2023-10-09T06:39:34;99835.97;;;9.51;100.00
9905;BME280;4991;43.566;27.820;2023-10-09T06:42:18;99847.13;;;9.69;100.00
9905;BME280;4991;43.566;27.820;2023-10-09T06:45:01;99822.38;;;9.61;100.00
9905;BME280;4991;43.566;27.820;2023-10-09T06:47:29;99832.16;;;9.67;100.00
9905;BME280;4991;43.566;27.820;2023-10-09T06:50:02;99866.16;;;9.79;100.00
9905;BME280;4991;43.566;27.820;2023-10-09T06:52:54;99874.59;;;9.73;100.00
9905;BME280;4991;43.566;27.820;2023-10-09T06:55:24;99864.53;;;9.63;100.00
9905;BME280;4991;43.566;27.820;2023-10-09T06:58:03;99780.78;;;9.35;100.00
9905;BME280;4991;43.566;27.820;2023-10-09T07:00:44;99879.47;;;10.01;100.00
9905;BME280;4991;43.566;27.820;2023-10-09T07:03:28;99823.69;;;9.98;100.00
9905;BME280;4991;43.566;27.820;2023-10-09T07:06:10;99799.50;;;9.62;100.00
9905;BME280;4991;43.566;27.820;2023-10-09T07:08:55;99833.78;;;9.93;100.00
9905;BME280;4991;43.566;27.820;2023-10-09T07:11:33;99838.41;;;10.12;100.00
9905;BME280;4991;43.566;27.820;2023-10-09T07:16:57;99866.88;;;10.55;100.00
9905;BME280;4991;43.566;27.820;2023-10-09T07:19:24;99861.69;;;10.59;100.00
9905;BME280;4991;43.566;27.820;2023-10-09T07:22:11;99867.91;;;10.69;100.00
9905;BME280;4991;43.566;27.820;2023-10-09T07:24:53;99843.41;;;10.69;100.00
9905;BME280;4991;43.566;27.820;2023-10-09T07:27:22;99781.88;;;10.58;100.00
9905;BME280;4991;43.566;27.820;2023-10-09T07:33:08;99825.25;;;10.98;100.00
9905;BME280;4991;43.566;27.820;2023-10-09T07:35:45;99792.13;;;10.76;100.00
9905;BME280;4991;43.566;27.820;2023-10-09T07:38:26;99858.38;;;11.25;100.00
9905;BME280;4991;43.566;27.820;2023-10-09T07:40:56;99851.81;;;11.26;100.00
9905;BME280;4991;43.566;27.820;2023-10-09T07:43:36;99800.97;;;11.02;100.00
9905;BME280;4991;43.566;27.820;2023-10-09T07:46:09;99821.84;;;11.21;100.00
9905;BME280;4991;43.566;27.820;2023-10-09T07:48:58;99765.34;;;10.93;100.00
9905;BME280;4991;43.566;27.820;2023-10-09T07:51:26;99804.81;;;11.39;100.00
9905;BME280;4991;43.566;27.820;2023-10-09T07:53:59;99802.94;;;11.35;100.00
9905;BME280;4991;43.566;27.820;2023-10-09T07:56:35;99844.84;;;11.83;100.00
9905;BME280;4991;43.566;27.820;2023-10-09T07:59:07;99761.34;;;11.14;100.00
9905;BME280;4991;43.566;27.820;2023-10-09T08:01:56;99818.81;;;11.61;100.00
9905;BME280;4991;43.566;27.820;2023-10-09T08:04:27;99785.84;;;11.58;100.00
9905;BME280;4991;43.566;27.820;2023-10-09T08:07:12;99816.94;;;11.91;100.00
9905;BME280;4991;43.566;27.820;2023-10-09T08:09:58;99856.69;;;12.30;100.00
9905;BME280;4991;43.566;27.820;2023-10-09T08:12:39;99848.66;;;12.39;100.00
9905;BME280;4991;43.566;27.820;2023-10-09T08:15:24;99857.22;;;12.32;100.00
9905;BME280;4991;43.566;27.820;2023-10-09T08:18:16;99806.09;;;12.09;100.00
9905;BME280;4991;43.566;27.820;2023-10-09T08:20:54;99866.53;;;12.55;100.00
9905;BME280;4991;43.566;27.820;2023-10-09T08:23:25;99838.97;;;12.28;100.00
9905;BME280;4991;43.566;27.820;2023-10-09T08:26:20;99829.03;;;12.13;100.00
9905;BME280;4991;43.566;27.820;2023-10-09T08:28:56;99869.81;;;12.52;100.00
9905;BME280;4991;43.566;27.820;2023-10-09T08:31:40;99811.81;;;12.36;100.00
9905;BME280;4991;43.566;27.820;2023-10-09T08:34:14;99794.84;;;12.39;100.00
9905;BME280;4991;43.566;27.820;2023-10-09T08:36:51;99784.09;;;12.48;100.00
9905;BME280;4991;43.566;27.820;2023-10-09T08:39:21;99772.66;;;12.46;100.00
9905;BME280;4991;43.566;27.820;2023-10-09T08:41:56;99838.28;;;13.07;100.00
9905;BME280;4991;43.566;27.820;2023-10-09T08:44:26;99763.41;;;12.42;100.00
9905;BME280;4991;43.566;27.820;2023-10-09T08:46:55;99848.38;;;13.30;100.00
9905;BME280;4991;43.566;27.820;2023-10-09T08:49:26;99850.72;;;13.18;100.00
9905;BME280;4991;43.566;27.820;2023-10-09T08:51:53;99831.56;;;12.75;100.00
9905;BME280;4991;43.566;27.820;2023-10-09T08:54:20;99853.53;;;13.31;100.00
9905;BME280;4991;43.566;27.820;2023-10-09T08:57:10;99847.59;;;13.61;100.00
9905;BME280;4991;43.566;27.820;2023-10-09T08:59:41;99747.53;;;13.05;100.00
9905;BME280;4991;43.566;27.820;2023-10-09T09:02:07;99854.00;;;13.89;100.00
9905;BME280;4991;43.566;27.820;2023-10-09T09:04:41;99739.03;;;13.25;100.00
9905;BME280;4991;43.566;27.820;2023-10-09T09:07:29;99822.16;;;14.39;100.00
9905;BME280;4991;43.566;27.820;2023-10-09T09:10:01;99795.16;;;15.44;100.00
9905;BME280;4991;43.566;27.820;2023-10-09T09:12:49;99808.03;;;16.88;100.00
9905;BME280;4991;43.566;27.820;2023-10-09T09:15:57;99822.06;;;17.60;93.76
9905;BME280;4991;43.566;27.820;2023-10-09T09:18:54;99828.38;;;18.49;85.40
9905;BME280;4991;43.566;27.820;2023-10-09T09:21:29;99791.34;;;18.88;80.40
9905;BME280;4991;43.566;27.820;2023-10-09T09:23:59;99780.53;;;18.45;76.39
9905;BME280;4991;43.566;27.820;2023-10-09T09:26:34;99820.13;;;18.78;74.49
9905;BME280;4991;43.566;27.820;2023-10-09T09:29:06;99779.00;;;18.85;76.10
9905;BME280;4991;43.566;27.820;2023-10-09T09:31:33;99790.75;;;20.90;71.16
9905;BME280;4991;43.566;27.820;2023-10-09T09:34:05;99805.69;;;21.37;66.09
9905;BME280;4991;43.566;27.820;2023-10-09T09:36:53;99751.41;;;20.85;64.11
9905;BME280;4991;43.566;27.820;2023-10-09T09:39:26;99783.91;;;22.65;62.67
9905;BME280;4991;43.566;27.820;2023-10-09T09:42:00;99754.34;;;22.73;59.72
9905;BME280;4991;43.566;27.820;2023-10-09T09:44:39;99724.06;;;23.22;57.60
9905;BME280;4991;43.566;27.820;2023-10-09T09:47:15;99728.09;;;22.39;56.37
9905;BME280;4991;43.566;27.820;2023-10-09T09:49:53;99732.28;;;21.87;58.26
9905;BME280;4991;43.566;27.820;2023-10-09T09:52:29;99754.66;;;21.66;56.89
9905;BME280;4991;43.566;27.820;2023-10-09T09:54:55;99775.19;;;19.60;58.96
9905;BME280;4991;43.566;27.820;2023-10-09T09:57:23;99734.63;;;18.90;61.09
9905;BME280;4991;43.566;27.820;2023-10-09T09:59:55;99732.13;;;20.04;59.68
9905;BME280;4991;43.566;27.820;2023-10-09T10:02:29;99777.97;;;20.37;59.97
9905;BME280;4991;43.566;27.820;2023-10-09T10:05:02;99754.88;;;19.77;60.21
9905;BME280;4991;43.566;27.820;2023-10-09T10:07:31;99748.78;;;19.51;61.15
9905;BME280;4991;43.566;27.820;2023-10-09T10:10:38;99772.13;;;19.41;61.33
9905;BME280;4991;43.566;27.820;2023-10-09T10:13:14;99689.50;;;19.48;61.64
9905;BME280;4991;43.566;27.820;2023-10-09T10:15:57;99757.22;;;19.34;61.29
9905;BME280;4991;43.566;27.820;2023-10-09T10:18:23;99730.13;;;19.48;60.89
9905;BME280;4991;43.566;27.820;2023-10-09T10:21:18;99673.16;;;19.55;60.19
9905;BME280;4991;43.566;27.820;2023-10-09T10:24:00;99711.50;;;20.98;57.43
9905;BME280;4991;43.566;27.820;2023-10-09T10:26:32;99719.25;;;21.32;57.84
9905;BME280;4991;43.566;27.820;2023-10-09T10:29:20;99718.91;;;22.85;56.66
9905;BME280;4991;43.566;27.820;2023-10-09T10:32:00;99674.16;;;22.71;54.47
9905;BME280;4991;43.566;27.820;2023-10-09T10:34:53;99696.69;;;21.89;54.76
9905;BME280;4991;43.566;27.820;2023-10-09T10:40:10;99654.53;;;24.01;51.01
9905;BME280;4991;43.566;27.820;2023-10-09T10:43:04;99673.44;;;25.53;48.33
9905;BME280;4991;43.566;27.820;2023-10-09T10:45:39;99636.97;;;25.68;46.71
9905;BME280;4991;43.566;27.820;2023-10-09T10:48:11;99653.06;;;23.24;47.64
9905;BME280;4991;43.566;27.820;2023-10-09T10:51:03;99608.09;;;22.61;49.26
9905;BME280;4991;43.566;27.820;2023-10-09T10:53:30;99637.22;;;23.89;49.21
9905;BME280;4991;43.566;27.820;2023-10-09T10:56:19;99630.44;;;24.91;46.29
9905;BME280;4991;43.566;27.820;2023-10-09T10:58:52;99664.91;;;23.59;46.38
9905;BME280;4991;43.566;27.820;2023-10-09T11:01:38;99640.88;;;22.40;47.46
9905;BME280;4991;43.566;27.820;2023-10-09T11:08:09;99633.59;;;25.19;46.01
9905;BME280;4991;43.566;27.820;2023-10-09T11:10:37;99630.22;;;25.03;43.99
9905;BME280;4991;43.566;27.820;2023-10-09T11:13:27;99628.28;;;25.80;42.29
9905;BME280;4991;43.566;27.820;2023-10-09T11:15:56;99631.81;;;26.72;41.41
9905;BME280;4991;43.566;27.820;2023-10-09T11:18:42;99621.22;;;27.12;40.83
9905;BME280;4991;43.566;27.820;2023-10-09T11:21:14;99613.25;;;27.14;39.77
9905;BME280;4991;43.566;27.820;2023-10-09T11:23:41;99614.53;;;27.31;39.32
9905;BME280;4991;43.566;27.820;2023-10-09T11:26:25;99586.88;;;27.15;38.57
9905;BME280;4991;43.566;27.820;2023-10-09T11:29:20;99617.47;;;28.08;38.58
9905;BME280;4991;43.566;27.820;2023-10-09T11:32:04;99628.94;;;27.43;37.38
9905;BME280;4991;43.566;27.820;2023-10-09T11:34:32;99606.53;;;26.50;38.87
9905;BME280;4991;43.566;27.820;2023-10-09T11:36:59;99610.84;;;26.41;38.21
9905;BME280;4991;43.566;27.820;2023-10-09T11:39:32;99553.31;;;26.26;39.33
9905;BME280;4991;43.566;27.820;2023-10-09T11:42:19;99603.34;;;26.52;38.56
9905;BME280;4991;43.566;27.820;2023-10-09T11:45:05;99585.41;;;26.60;38.46
9905;BME280;4991;43.566;27.820;2023-10-09T11:47:57;99568.66;;;28.06;37.72
9905;BME280;4991;43.566;27.820;2023-10-09T11:50:46;99561.22;;;28.89;36.67
9905;BME280;4991;43.566;27.820;2023-10-09T11:53:28;99569.44;;;28.03;36.73
9905;BME280;4991;43.566;27.820;2023-10-09T11:55:53;99539.41;;;26.36;38.32
9905;BME280;4991;43.566;27.820;2023-10-09T11:58:38;99545.34;;;28.51;36.72
9905;BME280;4991;43.566;27.820;2023-10-09T12:01:18;99539.72;;;28.65;35.52
9905;BME280;4991;43.566;27.820;2023-10-09T12:03:47;99516.63;;;27.98;35.51
9905;BME280;4991;43.566;27.820;2023-10-09T12:06:19;99469.00;;;28.22;35.77
9905;BME280;4991;43.566;27.820;2023-10-09T12:08:47;99491.34;;;28.36;35.56
9905;BME280;4991;43.566;27.820;2023-10-09T12:14:34;99486.16;;;28.31;35.65
9905;BME280;4991;43.566;27.820;2023-10-09T12:17:06;99490.94;;;28.38;35.81
9905;BME280;4991;43.566;27.820;2023-10-09T12:19:38;99513.84;;;27.45;36.71
9905;BME280;4991;43.566;27.820;2023-10-09T12:22:06;99433.06;;;27.82;36.74
9905;BME280;4991;43.566;27.820;2023-10-09T12:24:36;99474.03;;;28.66;35.21
9905;BME280;4991;43.566;27.820;2023-10-09T12:27:09;99449.22;;;28.61;35.32
9905;BME280;4991;43.566;27.820;2023-10-09T12:29:37;99493.41;;;27.13;37.07
9905;BME280;4991;43.566;27.820;2023-10-09T12:32:03;99427.34;;;28.24;35.70
9905;BME280;4991;43.566;27.820;2023-10-09T12:34:30;99466.94;;;29.64;34.29
9905;BME280;4991;43.566;27.820;2023-10-09T12:36:57;99428.09;;;28.35;35.83
9905;BME280;4991;43.566;27.820;2023-10-09T12:39:29;99473.13;;;28.86;36.12
9905;BME280;4991;43.566;27.820;2023-10-09T12:42:00;99465.81;;;28.10;35.58
9905;BME280;4991;43.566;27.820;2023-10-09T12:44:33;99456.63;;;27.25;36.48
9905;BME280;4991;43.566;27.820;2023-10-09T12:47:04;99437.44;;;26.99;36.72
9905;BME280;4991;43.566;27.820;2023-10-09T12:49:30;99462.22;;;27.07;37.37
9905;BME280;4991;43.566;27.820;2023-10-09T12:51:55;99432.66;;;27.69;36.79
9905;BME280;4991;43.566;27.820;2023-10-09T12:54:24;99441.50;;;27.47;37.09
9905;BME280;4991;43.566;27.820;2023-10-09T13:00:24;99420.66;;;26.78;37.70
9905;BME280;4991;43.566;27.820;2023-10-09T13:03:14;99441.44;;;27.12;38.05
9905;BME280;4991;43.566;27.820;2023-10-09T13:05:50;99438.63;;;26.91;37.73
9905;BME280;4991;43.566;27.820;2023-10-09T13:08:24;99419.84;;;26.77;38.27
9905;BME280;4991;43.566;27.820;2023-10-09T13:11:01;99438.00;;;26.29;39.43
9905;BME280;4991;43.566;27.820;2023-10-09T13:13:33;99432.28;;;25.43;39.99
9905;BME280;4991;43.566;27.820;2023-10-09T13:16:07;99437.19;;;25.13;40.71
9905;BME280;4991;43.566;27.820;2023-10-09T13:18:33;99409.75;;;25.18;41.31
9905;BME280;4991;43.566;27.820;2023-10-09T13:20:58;99372.13;;;24.95;41.84
9905;BME280;4991;43.566;27.820;2023-10-09T13:23:31;99406.19;;;25.72;41.57
9905;BME280;4991;43.566;27.820;2023-10-09T13:26:06;99363.53;;;25.68;40.70
9905;BME280;4991;43.566;27.820;2023-10-09T13:28:49;99361.56;;;25.18;41.66
9905;BME280;4991;43.566;27.820;2023-10-09T13:31:16;99350.72;;;25.64;42.11
9905;BME280;4991;43.566;27.820;2023-10-09T13:33:44;99360.34;;;25.15;42.34
9905;BME280;4991;43.566;27.820;2023-10-09T13:36:12;99367.59;;;24.06;42.58
9905;BME280;4991;43.566;27.820;2023-10-09T13:39:00;99344.06;;;23.45;43.79
9905;BME280;4991;43.566;27.820;2023-10-09T13:41:56;99334.88;;;22.66;44.88
9905;BME280;4991;43.566;27.820;2023-10-09T13:44:30;99347.88;;;22.84;45.70
9905;BME280;4991;43.566;27.820;2023-10-09T13:47:02;99370.03;;;22.81;45.50
9905;BME280;4991;43.566;27.820;2023-10-09T13:49:30;99366.19;;;23.34;46.17
9905;BME280;4991;43.566;27.820;2023-10-09T13:51:59;99335.03;;;23.51;44.61
9905;BME280;4991;43.566;27.820;2023-10-09T13:54:26;99323.88;;;23.77;45.20
9905;BME280;4991;43.566;27.820;2023-10-09T13:57:02;99321.69;;;24.27;44.22
9905;BME280;4991;43.566;27.820;2023-10-09T13:59:32;99351.63;;;24.73;44.79
9905;BME280;4991;43.566;27.820;2023-10-09T14:02:01;99320.25;;;25.34;43.46
9905;BME280;4991;43.566;27.820;2023-10-09T14:04:28;99310.06;;;24.58;43.52
9905;BME280;4991;43.566;27.820;2023-10-09T14:06:54;99327.56;;;24.55;44.79
9905;BME280;4991;43.566;27.820;2023-10-09T14:09:24;99346.16;;;24.84;44.22
9905;BME280;4991;43.566;27.820;2023-10-09T14:11:55;99313.91;;;24.43;44.01
9905;BME280;4991;43.566;27.820;2023-10-09T14:14:43;99358.28;;;23.36;45.54
9905;BME280;4991;43.566;27.820;2023-10-09T14:17:19;99302.72;;;22.65;47.02
9905;BME280;4991;43.566;27.820;2023-10-09T14:19:51;99338.06;;;21.50;48.96
9905;BME280;4991;43.566;27.820;2023-10-09T14:22:23;99321.75;;;20.79;51.43
9905;BME280;4991;43.566;27.820;2023-10-09T14:24:53;99273.09;;;20.04;52.70
9905;BME280;4991;43.566;27.820;2023-10-09T14:27:26;99304.47;;;19.68;55.15
9905;BME280;4991;43.566;27.820;2023-10-09T14:29:54;99269.88;;;19.59;56.19
9905;BME280;4991;43.566;27.820;2023-10-09T14:32:26;99272.75;;;19.10;56.81
9905;BME280;4991;43.566;27.820;2023-10-09T14:34:56;99294.63;;;18.67;60.16
9905;BME280;4991;43.566;27.820;2023-10-09T14:37:27;99326.00;;;18.63;62.32
9905;BME280;4991;43.566;27.820;2023-10-09T14:39:53;99295.75;;;18.42;62.91